Time;durP1;ratioP1;P1;durP2;ratioP2;P2;SDS_P1;SDS_P2;PMS_P1;PMS_P2;Temp;Humidity;BMP_temperature;BMP_pressure;BME280_temperature;BME280_humidity;BME280_pressure;Samples;Min_cycle;Max_cycle;Signal;HPM_P1;HPM_P2
2023/10/30 00:02:14;;;;;;;0.20;0.20;;;13.10;99.90;;;;;;4987251;28;20277;-91
2023/10/30 00:04:40;;;;;;;1.08;0.30;;;13.10;99.90;;;;;;4982979;28;20026;-87
2023/10/30 00:07:08;;;;;;;0.10;0.10;;;13.20;99.90;;;;;;4986174;28;20109;-90
2023/10/30 00:09:33;;;;;;;0.10;0.10;;;13.20;99.90;;;;;;4983893;28;20014;-89
2023/10/30 00:12:01;;;;;;;0.13;0.13;;;13.20;99.90;;;;;;5000037;28;20076;-85
2023/10/30 00:14:27;;;;;;;0.10;0.10;;;13.20;99.90;;;;;;4984795;28;20090;-90
2023/10/30 00:16:53;;;;;;;0.10;0.10;;;13.20;99.90;;;;;;4998921;28;20114;-89
2023/10/30 00:19:18;;;;;;;0.20;0.20;;;13.20;99.90;;;;;;4992527;28;20065;-84
2023/10/30 00:21:44;;;;;;;0.43;0.43;;;13.20;99.90;;;;;;5004132;28;20030;-87
2023/10/30 00:24:12;;;;;;;0.10;0.10;;;13.20;99.90;;;;;;5019724;28;20049;-84
2023/10/30 00:26:38;;;;;;;0.10;0.10;;;13.20;99.90;;;;;;4995026;28;20022;-86
2023/10/30 00:29:03;;;;;;;40.65;0.45;;;13.20;99.90;;;;;;4988356;28;20022;-90
2023/10/30 00:31:29;;;;;;;0.10;0.10;;;13.10;99.90;;;;;;4988016;28;20301;-84
2023/10/30 00:33:55;;;;;;;0.10;0.10;;;13.10;99.90;;;;;;4984613;28;20030;-84
2023/10/30 00:36:23;;;;;;;0.40;0.40;;;13.20;99.90;;;;;;4984336;28;20418;-92
2023/10/30 00:38:49;;;;;;;0.10;0.10;;;13.20;99.90;;;;;;4985805;28;20029;-86
2023/10/30 00:41:15;;;;;;;0.10;0.10;;;13.20;99.90;;;;;;4986002;28;20097;-86
2023/10/30 00:43:40;;;;;;;0.10;0.10;;;13.20;99.90;;;;;;4985829;28;20364;-86
2023/10/30 00:46:09;;;;;;;3.85;0.47;;;13.20;99.90;;;;;;4985559;28;20058;-90
2023/10/30 00:48:35;;;;;;;0.10;0.10;;;13.20;99.90;;;;;;4983096;28;20053;-87
2023/10/30 00:51:04;;;;;;;0.10;0.10;;;13.20;99.90;;;;;;5002967;28;20036;-90
2023/10/30 00:53:30;;;;;;;0.20;0.20;;;13.30;99.90;;;;;;4986360;28;20616;-85
2023/10/30 00:56:00;;;;;;;0.10;0.10;;;13.30;99.90;;;;;;4997833;28;20018;-89
2023/10/30 00:58:28;;;;;;;0.10;0.10;;;13.30;99.90;;;;;;4996314;28;20034;-82
2023/10/30 01:00:55;;;;;;;2.83;0.45;;;13.30;99.90;;;;;;4996120;28;20022;-87
2023/10/30 01:03:23;;;;;;;0.10;0.10;;;13.40;99.90;;;;;;4994053;28;20493;-86
2023/10/30 01:06:00;;;;;;;0.10;0.10;;;13.30;99.90;;;;;;4987748;28;20018;-90
2023/10/30 01:08:26;;;;;;;0.10;0.10;;;13.30;99.90;;;;;;4986647;28;20451;-90
2023/10/30 01:10:55;;;;;;;0.10;0.10;;;13.30;99.90;;;;;;4981812;28;20057;-86
2023/10/30 01:13:21;;;;;;;0.10;0.10;;;13.30;99.90;;;;;;4984529;28;20066;-89
2023/10/30 01:15:47;;;;;;;0.10;0.10;;;13.30;99.90;;;;;;4987893;28;20501;-86
2023/10/30 01:18:15;;;;;;;0.10;0.10;;;13.40;99.90;;;;;;4992029;28;20038;-91
2023/10/30 01:20:41;;;;;;;0.10;0.10;;;13.40;99.90;;;;;;4987236;28;20125;-87
2023/10/30 01:23:12;;;;;;;0.10;0.10;;;13.40;99.90;;;;;;4982012;28;20113;-90
2023/10/30 01:25:37;;;;;;;0.10;0.10;;;13.40;99.90;;;;;;4983281;28;20117;-88
2023/10/30 01:28:03;;;;;;;0.10;0.10;;;13.40;99.90;;;;;;4984405;28;20462;-89
2023/10/30 01:30:29;;;;;;;0.20;0.20;;;13.40;99.90;;;;;;4979954;28;20014;-88
2023/10/30 01:32:54;;;;;;;0.20;0.20;;;13.40;99.90;;;;;;4986926;28;20068;-93
2023/10/30 01:35:20;;;;;;;0.13;0.13;;;13.40;99.90;;;;;;5000601;28;20141;-93
2023/10/30 01:37:46;;;;;;;0.20;0.20;;;13.40;99.90;;;;;;5001532;28;20034;-90
2023/10/30 01:40:11;;;;;;;0.65;0.30;;;13.40;99.90;;;;;;4985076;28;20064;-85
2023/10/30 01:42:37;;;;;;;2.38;0.20;;;13.30;99.90;;;;;;4984819;28;20034;-82
2023/10/30 01:45:04;;;;;;;0.10;0.10;;;13.30;99.90;;;;;;4990666;28;20037;-88
2023/10/30 01:47:29;;;;;;;0.20;0.20;;;13.30;99.90;;;;;;5010675;28;20117;-90
2023/10/30 01:50:00;;;;;;;0.73;0.73;;;13.30;99.90;;;;;;4988013;28;20439;-88
2023/10/30 01:52:28;;;;;;;0.10;0.10;;;13.40;99.90;;;;;;4993083;28;20057;-84
2023/10/30 01:54:54;;;;;;;0.28;0.28;;;13.30;99.90;;;;;;4987687;28;20057;-92
2023/10/30 01:57:25;;;;;;;2.92;1.48;;;13.40;99.90;;;;;;4982472;28;20027;-91
2023/10/30 01:59:52;;;;;;;0.35;0.35;;;13.50;99.90;;;;;;4981762;28;20026;-88
2023/10/30 02:02:24;;;;;;;0.10;0.10;;;13.50;99.90;;;;;;4985724;28;20045;-86
2023/10/30 02:04:50;;;;;;;0.20;0.20;;;13.40;99.90;;;;;;4984208;28;20181;-84
2023/10/30 02:07:18;;;;;;;0.20;0.20;;;13.50;99.90;;;;;;5000174;28;20731;-93
2023/10/30 02:09:45;;;;;;;0.10;0.10;;;13.40;99.90;;;;;;4984944;28;20022;-84
2023/10/30 02:12:10;;;;;;;0.40;0.40;;;13.60;99.90;;;;;;4986921;28;20129;-88
2023/10/30 02:14:36;;;;;;;0.15;0.15;;;13.40;99.90;;;;;;4983139;28;20105;-88
2023/10/30 02:17:02;;;;;;;0.10;0.10;;;13.40;99.90;;;;;;4983687;28;20213;-87
2023/10/30 02:19:27;;;;;;;0.13;0.13;;;13.50;99.90;;;;;;4981778;28;20170;-89
2023/10/30 02:21:55;;;;;;;0.22;0.20;;;13.50;99.90;;;;;;4981657;28;20026;-88
2023/10/30 02:24:21;;;;;;;0.20;0.20;;;13.40;99.90;;;;;;4979010;28;20053;-86
2023/10/30 02:26:50;;;;;;;0.13;0.13;;;13.40;99.90;;;;;;4980848;28;20018;-89
2023/10/30 02:29:17;;;;;;;0.10;0.10;;;13.30;99.90;;;;;;4981256;28;20192;-92
2023/10/30 02:31:43;;;;;;;0.40;0.40;;;13.30;99.90;;;;;;4982305;28;20096;-92
2023/10/30 02:34:09;;;;;;;0.40;0.40;;;13.30;99.90;;;;;;4982520;28;20018;-85
2023/10/30 02:36:37;;;;;;;0.20;0.20;;;13.30;99.90;;;;;;5002951;28;20022;-91
2023/10/30 02:39:03;;;;;;;0.50;0.50;;;13.30;99.90;;;;;;5003049;28;20112;-89
2023/10/30 02:41:31;;;;;;;0.68;0.68;;;13.20;99.90;;;;;;4984321;28;20260;-88
2023/10/30 02:43:57;;;;;;;2.17;1.48;;;13.20;99.90;;;;;;4988934;28;20463;-91
2023/10/30 02:46:23;;;;;;;0.20;0.20;;;13.30;99.90;;;;;;4987151;28;20037;-82
2023/10/30 02:48:50;;;;;;;0.45;0.45;;;13.30;99.90;;;;;;4988066;28;20030;-92
2023/10/30 02:51:18;;;;;;;0.20;0.20;;;13.30;99.90;;;;;;5003675;28;20192;-92
2023/10/30 02:53:44;;;;;;;0.10;0.10;;;13.20;99.90;;;;;;4984404;28;20034;-87
2023/10/30 02:56:12;;;;;;;0.10;0.10;;;13.30;99.90;;;;;;4984892;28;20754;-89
2023/10/30 02:58:38;;;;;;;0.10;0.10;;;13.30;99.90;;;;;;5000713;28;20038;-82
2023/10/30 03:01:03;;;;;;;0.10;0.10;;;13.30;99.90;;;;;;4987802;28;20754;-93
2023/10/30 03:03:29;;;;;;;0.40;0.20;;;13.30;99.90;;;;;;4989239;28;20522;-83
2023/10/30 03:05:55;;;;;;;0.10;0.10;;;13.30;99.90;;;;;;4985696;28;20105;-85
2023/10/30 03:08:21;;;;;;;0.10;0.10;;;13.20;99.90;;;;;;5002478;28;20014;-88
2023/10/30 03:10:50;;;;;;;0.20;0.20;;;13.30;99.90;;;;;;4987769;28;20028;-87
2023/10/30 03:13:15;;;;;;;0.10;0.10;;;13.20;99.90;;;;;;5000972;28;20038;-87
2023/10/30 03:15:49;;;;;;;0.10;0.10;;;13.30;99.90;;;;;;4989660;28;20117;-90
2023/10/30 03:18:15;;;;;;;0.10;0.10;;;13.30;99.90;;;;;;4987275;28;20105;-87
2023/10/30 03:20:40;;;;;;;0.10;0.10;;;13.20;99.90;;;;;;4993376;28;20049;-85
2023/10/30 03:23:06;;;;;;;0.17;0.17;;;13.20;99.90;;;;;;5016371;28;20022;-86
2023/10/30 03:25:32;;;;;;;0.10;0.10;;;13.10;99.90;;;;;;4983982;28;20034;-86
2023/10/30 03:27:57;;;;;;;0.52;0.52;;;13.20;99.90;;;;;;4986551;28;20092;-89
2023/10/30 03:30:26;;;;;;;0.63;0.63;;;13.20;99.90;;;;;;4986406;28;20022;-88
2023/10/30 03:32:51;;;;;;;0.57;0.40;;;13.20;99.90;;;;;;4989074;28;20471;-90
2023/10/30 03:35:17;;;;;;;1.00;0.55;;;13.20;99.90;;;;;;4989128;28;20037;-90
2023/10/30 03:37:43;;;;;;;0.40;0.30;;;13.20;99.90;;;;;;4987709;28;20684;-87
2023/10/30 03:40:09;;;;;;;0.17;0.17;;;13.20;99.90;;;;;;4989816;28;20029;-88
2023/10/30 03:42:34;;;;;;;0.13;0.13;;;13.30;99.90;;;;;;4988939;28;20077;-86
2023/10/30 03:45:00;;;;;;;0.52;0.52;;;13.30;99.90;;;;;;4990399;28;20011;-87
2023/10/30 03:47:26;;;;;;;0.10;0.10;;;13.30;99.90;;;;;;4989060;28;20482;-83
2023/10/30 03:49:52;;;;;;;0.10;0.10;;;13.40;99.90;;;;;;5020525;28;20030;-82
2023/10/30 03:52:17;;;;;;;0.20;0.20;;;13.30;99.90;;;;;;5006897;28;20034;-84
2023/10/30 03:54:43;;;;;;;0.20;0.20;;;13.30;99.90;;;;;;5002443;28;20026;-89
2023/10/30 03:57:08;;;;;;;0.10;0.10;;;13.40;99.90;;;;;;5001216;28;20081;-93
2023/10/30 03:59:35;;;;;;;0.10;0.10;;;13.30;99.90;;;;;;4985360;28;20133;-84
2023/10/30 04:02:01;;;;;;;0.32;0.32;;;13.30;99.90;;;;;;4983085;28;20037;-85
2023/10/30 04:04:29;;;;;;;0.10;0.10;;;13.30;99.90;;;;;;4986564;28;20410;-86
2023/10/30 04:06:55;;;;;;;0.10;0.10;;;13.30;99.90;;;;;;4985248;28;20756;-93
2023/10/30 04:09:20;;;;;;;0.30;0.30;;;13.30;99.90;;;;;;4983999;28;20072;-86
2023/10/30 04:11:46;;;;;;;3.08;0.70;;;13.30;99.90;;;;;;4983449;28;20061;-88
2023/10/30 04:14:12;;;;;;;0.20;0.20;;;13.20;99.90;;;;;;4998972;28;20030;-90
2023/10/30 04:16:38;;;;;;;0.10;0.10;;;13.10;99.90;;;;;;4992727;28;20481;-88
2023/10/30 04:19:03;;;;;;;0.10;0.10;;;13.20;99.90;;;;;;4988689;28;20033;-85
2023/10/30 04:21:29;;;;;;;0.10;0.10;;;13.20;99.90;;;;;;5005821;28;20450;-85
2023/10/30 04:23:55;;;;;;;1.38;1.27;;;13.10;99.90;;;;;;4986632;28;20022;-85
2023/10/30 04:26:20;;;;;;;0.10;0.10;;;13.20;99.90;;;;;;4986421;28;20352;-89
2023/10/30 04:28:46;;;;;;;0.15;0.15;;;13.10;99.90;;;;;;4984411;28;20041;-90
2023/10/30 04:31:12;;;;;;;0.10;0.10;;;13.10;99.90;;;;;;4985861;28;20533;-87
2023/10/30 04:33:38;;;;;;;0.20;0.20;;;13.10;99.90;;;;;;4984600;28;20495;-90
2023/10/30 04:36:04;;;;;;;0.10;0.10;;;13.00;99.90;;;;;;4985546;28;20438;-89
2023/10/30 04:38:31;;;;;;;0.10;0.10;;;12.90;99.90;;;;;;4984548;28;20033;-87
2023/10/30 04:40:57;;;;;;;0.10;0.10;;;12.90;99.90;;;;;;4983259;28;20021;-84
2023/10/30 04:43:25;;;;;;;0.55;0.20;;;12.80;99.90;;;;;;4985534;28;20057;-90
2023/10/30 04:45:51;;;;;;;0.20;0.20;;;12.90;99.90;;;;;;4983159;28;20038;-87
2023/10/30 04:48:16;;;;;;;0.20;0.20;;;12.90;99.90;;;;;;4983632;28;20014;-90
2023/10/30 04:50:42;;;;;;;0.20;0.20;;;12.90;99.90;;;;;;4985667;28;20061;-85
2023/10/30 04:53:08;;;;;;;0.20;0.20;;;12.80;99.90;;;;;;4979414;28;20121;-87
2023/10/30 04:55:34;;;;;;;0.20;0.20;;;12.90;99.90;;;;;;4984983;28;20367;-83
2023/10/30 04:58:00;;;;;;;20.52;0.47;;;12.90;99.90;;;;;;4984534;28;20026;-85
2023/10/30 05:00:26;;;;;;;0.45;0.45;;;12.90;99.90;;;;;;4984732;28;20041;-88
2023/10/30 05:02:51;;;;;;;0.20;0.20;;;12.90;99.90;;;;;;4989540;28;20248;-86
2023/10/30 05:05:17;;;;;;;0.20;0.20;;;12.90;99.90;;;;;;4996651;28;20033;-84
2023/10/30 05:07:44;;;;;;;5.18;2.05;;;12.80;99.90;;;;;;5014811;28;20033;-86
2023/10/30 05:10:11;;;;;;;1.55;0.32;;;12.80;99.90;;;;;;4983704;28;20108;-89
2023/10/30 05:12:37;;;;;;;0.13;0.13;;;12.80;99.90;;;;;;5005875;28;20126;-93
2023/10/30 05:15:03;;;;;;;0.10;0.10;;;12.80;99.90;;;;;;4984180;28;20427;-82
2023/10/30 05:17:31;;;;;;;0.20;0.20;;;12.80;99.90;;;;;;4983298;28;20423;-87
2023/10/30 05:19:57;;;;;;;0.22;0.22;;;12.80;99.90;;;;;;4979573;28;20735;-83
2023/10/30 05:22:24;;;;;;;0.25;0.25;;;12.70;99.90;;;;;;4983296;28;20030;-83
2023/10/30 05:24:50;;;;;;;0.10;0.10;;;12.70;99.90;;;;;;4982835;28;20387;-92
2023/10/30 05:27:16;;;;;;;0.10;0.10;;;12.60;99.90;;;;;;4998847;28;20027;-82
2023/10/30 05:29:44;;;;;;;0.20;0.20;;;12.50;99.90;;;;;;4984272;28;20019;-83
2023/10/30 05:32:09;;;;;;;0.10;0.10;;;12.50;99.90;;;;;;4982889;28;20043;-90
2023/10/30 05:34:36;;;;;;;0.10;0.10;;;12.50;99.90;;;;;;4982633;28;20028;-87
2023/10/30 05:37:06;;;;;;;0.28;0.28;;;12.40;99.90;;;;;;5000614;28;20121;-84
2023/10/30 05:39:32;;;;;;;0.10;0.10;;;12.40;99.90;;;;;;4982616;28;20506;-87
2023/10/30 05:41:58;;;;;;;0.10;0.10;;;12.40;99.90;;;;;;4983754;28;20353;-83
2023/10/30 05:44:24;;;;;;;0.10;0.10;;;12.40;99.90;;;;;;4995712;28;20014;-87
2023/10/30 05:46:50;;;;;;;0.10;0.10;;;12.40;99.90;;;;;;4992592;28;20026;-85
2023/10/30 05:49:15;;;;;;;0.10;0.10;;;12.30;99.90;;;;;;4983567;28;20042;-94
2023/10/30 05:51:41;;;;;;;0.65;0.65;;;12.40;99.90;;;;;;4983037;28;20065;-85
2023/10/30 05:54:09;;;;;;;0.17;0.17;;;12.40;99.90;;;;;;4982199;28;20021;-84
2023/10/30 05:56:35;;;;;;;0.20;0.20;;;12.40;99.90;;;;;;4980947;28;20023;-84
2023/10/30 05:59:00;;;;;;;0.73;0.25;;;12.40;99.90;;;;;;4982840;28;20316;-86
2023/10/30 06:01:28;;;;;;;0.20;0.20;;;12.40;99.90;;;;;;4982015;28;20491;-87
2023/10/30 06:03:56;;;;;;;0.47;0.47;;;12.40;99.90;;;;;;4981809;28;20030;-89
2023/10/30 06:06:22;;;;;;;0.30;0.30;;;12.40;99.90;;;;;;4983425;28;20050;-88
2023/10/30 06:08:48;;;;;;;0.30;0.30;;;12.30;99.90;;;;;;4982875;28;20678;-85
2023/10/30 06:14:35;;;;;;;0.10;0.10;;;12.20;99.90;;;;;;4947173;28;20414;-85
2023/10/30 06:17:01;;;;;;;0.10;0.10;;;12.20;99.90;;;;;;4982132;28;20077;-86
2023/10/30 06:19:28;;;;;;;0.13;0.13;;;12.30;99.90;;;;;;4996468;28;20018;-84
2023/10/30 06:21:54;;;;;;;0.10;0.10;;;12.30;99.90;;;;;;4980899;28;20030;-85
2023/10/30 06:24:19;;;;;;;0.10;0.10;;;12.20;99.90;;;;;;4982631;28;20093;-89
2023/10/30 06:26:45;;;;;;;0.60;0.60;;;12.20;99.90;;;;;;4979073;28;20038;-83
2023/10/30 06:29:12;;;;;;;1.45;0.82;;;12.20;99.90;;;;;;4981258;28;20285;-86
2023/10/30 06:31:40;;;;;;;0.30;0.30;;;12.20;99.90;;;;;;4982716;28;20534;-86
2023/10/30 06:34:07;;;;;;;0.40;0.40;;;12.20;99.90;;;;;;4982047;28;20050;-88
2023/10/30 06:36:32;;;;;;;0.10;0.10;;;12.20;99.90;;;;;;4983932;28;20033;-86
2023/10/30 06:39:00;;;;;;;0.10;0.10;;;12.20;99.90;;;;;;4983050;28;20728;-93
2023/10/30 06:41:26;;;;;;;0.10;0.10;;;12.20;99.90;;;;;;5005540;28;20030;-85
2023/10/30 06:43:51;;;;;;;0.25;0.25;;;12.20;99.90;;;;;;4987906;28;20109;-86
2023/10/30 06:46:17;;;;;;;8.77;0.35;;;12.20;99.90;;;;;;4987799;28;20030;-88
2023/10/30 06:48:43;;;;;;;0.20;0.20;;;12.20;99.90;;;;;;4983235;28;20027;-88
2023/10/30 06:51:11;;;;;;;0.20;0.20;;;12.30;99.90;;;;;;4996503;28;20085;-83
2023/10/30 06:53:37;;;;;;;0.13;0.13;;;12.30;99.90;;;;;;4979790;28;20043;-87
2023/10/30 06:56:03;;;;;;;0.30;0.20;;;12.30;99.90;;;;;;4981618;28;20088;-89
2023/10/30 06:58:29;;;;;;;0.22;0.22;;;12.30;99.90;;;;;;4979647;28;20018;-86
2023/10/30 07:01:02;;;;;;;0.45;0.45;;;12.30;99.90;;;;;;4982464;28;20395;-92
2023/10/30 07:03:28;;;;;;;0.10;0.10;;;12.30;99.90;;;;;;4995933;28;20035;-89
2023/10/30 07:05:54;;;;;;;0.08;0.08;;;12.40;99.90;;;;;;4982292;28;20029;-84
2023/10/30 07:08:19;;;;;;;0.10;0.10;;;12.30;99.90;;;;;;4982087;28;20033;-88
2023/10/30 07:10:45;;;;;;;0.10;0.10;;;12.30;99.90;;;;;;4980958;28;20029;-89
2023/10/30 07:13:12;;;;;;;0.10;0.10;;;12.30;99.90;;;;;;4980319;28;20128;-90
2023/10/30 07:15:37;;;;;;;0.10;0.10;;;12.40;99.90;;;;;;4998174;28;20441;-93
2023/10/30 07:18:03;;;;;;;0.75;0.40;;;12.40;99.90;;;;;;5012215;28;20118;-87
2023/10/30 07:20:28;;;;;;;0.20;0.20;;;12.40;99.90;;;;;;5038068;23;20037;-85
2023/10/30 07:22:54;;;;;;;0.10;0.10;;;12.50;99.90;;;;;;5020022;28;20025;-87
2023/10/30 07:25:20;;;;;;;0.10;0.10;;;12.60;99.90;;;;;;5007651;28;20113;-86
2023/10/30 07:27:46;;;;;;;7.55;0.20;;;12.70;99.90;;;;;;5000640;28;20030;-84
2023/10/30 07:30:12;;;;;;;0.10;0.10;;;12.70;99.90;;;;;;4999629;28;20040;-89
2023/10/30 07:32:38;;;;;;;0.10;0.10;;;12.80;99.90;;;;;;5001441;28;20030;-91
2023/10/30 07:35:06;;;;;;;0.10;0.10;;;12.80;99.90;;;;;;5018679;28;20096;-91
2023/10/30 07:37:36;;;;;;;0.20;0.20;;;12.90;99.90;;;;;;5001961;28;20084;-83
2023/10/30 07:40:03;;;;;;;0.10;0.10;;;13.00;99.90;;;;;;5000011;28;20091;-91
2023/10/30 07:42:28;;;;;;;0.30;0.30;;;13.10;99.90;;;;;;4999025;28;20029;-83
2023/10/30 07:44:54;;;;;;;0.65;0.50;;;13.00;99.90;;;;;;5005173;28;20104;-90
2023/10/30 07:47:20;;;;;;;0.22;0.22;;;13.00;99.90;;;;;;5015964;28;20108;-88
2023/10/30 07:49:46;;;;;;;0.30;0.30;;;13.00;99.90;;;;;;4999877;28;20026;-90
2023/10/30 07:52:13;;;;;;;0.10;0.10;;;13.10;99.90;;;;;;4999131;28;20390;-88
2023/10/30 07:54:42;;;;;;;0.43;0.15;;;13.20;99.90;;;;;;4998322;28;20028;-88
2023/10/30 07:57:09;;;;;;;0.20;0.20;;;13.30;99.90;;;;;;5000559;28;20053;-84
2023/10/30 07:59:35;;;;;;;0.20;0.20;;;13.30;99.90;;;;;;5000200;28;20034;-87
2023/10/30 08:02:01;;;;;;;0.63;0.63;;;13.40;99.90;;;;;;4999509;28;20027;-87
2023/10/30 08:04:27;;;;;;;1.13;1.13;;;13.30;99.90;;;;;;5020014;28;20030;-87
2023/10/30 08:06:52;;;;;;;0.20;0.20;;;13.30;99.90;;;;;;5004226;28;20022;-88
2023/10/30 08:09:18;;;;;;;0.20;0.20;;;13.40;99.90;;;;;;5026074;28;20486;-87
2023/10/30 08:11:46;;;;;;;0.20;0.20;;;13.40;99.90;;;;;;5016502;28;20383;-89
2023/10/30 08:14:12;;;;;;;0.20;0.20;;;13.50;99.90;;;;;;5003536;28;20026;-87
2023/10/30 08:16:38;;;;;;;0.15;0.15;;;13.50;99.90;;;;;;4995758;28;20486;-89
2023/10/30 08:19:04;;;;;;;0.10;0.10;;;13.50;99.90;;;;;;5000020;28;20061;-87
2023/10/30 08:21:29;;;;;;;1.55;0.57;;;13.60;99.90;;;;;;4996840;28;20111;-89
2023/10/30 08:23:55;;;;;;;0.35;0.35;;;13.70;99.90;;;;;;4997009;28;20018;-82
2023/10/30 08:26:20;;;;;;;0.20;0.20;;;13.80;99.90;;;;;;4996233;28;20113;-90
2023/10/30 08:28:46;;;;;;;0.63;0.63;;;13.80;99.90;;;;;;4995666;28;20125;-85
2023/10/30 08:31:15;;;;;;;1.23;1.05;;;13.80;99.90;;;;;;5016234;28;20025;-91
2023/10/30 08:33:41;;;;;;;0.10;0.10;;;13.90;99.90;;;;;;4996520;28;20041;-90
2023/10/30 08:36:06;;;;;;;0.55;0.55;;;13.90;99.90;;;;;;5001579;28;20026;-88
2023/10/30 08:38:34;;;;;;;0.10;0.10;;;13.90;99.90;;;;;;5001955;28;20691;-90
2023/10/30 08:41:00;;;;;;;0.20;0.20;;;14.10;99.90;;;;;;4996908;28;20025;-86
2023/10/30 08:43:25;;;;;;;0.50;0.50;;;14.10;99.90;;;;;;4996355;28;20076;-92
2023/10/30 08:45:51;;;;;;;0.20;0.20;;;14.20;99.90;;;;;;4998780;28;20041;-83
2023/10/30 08:48:17;;;;;;;0.20;0.20;;;14.30;99.90;;;;;;5011770;28;20139;-88
2023/10/30 08:50:42;;;;;;;0.20;0.20;;;14.30;99.90;;;;;;4996311;28;20797;-91
2023/10/30 08:53:08;;;;;;;0.40;0.40;;;14.40;99.90;;;;;;5000240;28;20038;-89
2023/10/30 08:55:34;;;;;;;1.00;0.98;;;14.40;99.90;;;;;;4995758;28;20181;-82
2023/10/30 08:58:02;;;;;;;0.17;0.17;;;14.40;99.90;;;;;;4997443;28;20188;-88
2023/10/30 09:00:28;;;;;;;0.30;0.30;;;14.50;99.90;;;;;;5000364;28;20078;-84
2023/10/30 09:02:54;;;;;;;0.32;0.32;;;14.60;99.90;;;;;;4998850;28;20030;-91
2023/10/30 09:05:24;;;;;;;0.38;0.38;;;14.70;99.90;;;;;;4999137;28;20021;-88
2023/10/30 09:07:49;;;;;;;21.13;0.57;;;14.60;99.90;;;;;;5001924;28;20036;-84
2023/10/30 09:10:15;;;;;;;0.30;0.30;;;14.70;99.90;;;;;;5016825;28;20025;-90
2023/10/30 09:12:41;;;;;;;0.20;0.20;;;14.80;99.90;;;;;;5025559;28;20022;-84
2023/10/30 09:15:08;;;;;;;0.20;0.20;;;14.90;99.90;;;;;;5020316;28;20080;-85
2023/10/30 09:17:34;;;;;;;2.80;0.90;;;14.80;99.90;;;;;;5012829;28;20034;-84
2023/10/30 09:19:59;;;;;;;0.30;0.30;;;14.90;99.90;;;;;;4998836;28;20040;-88
2023/10/30 09:22:25;;;;;;;0.20;0.20;;;14.90;99.90;;;;;;4999338;28;20031;-86
2023/10/30 09:24:51;;;;;;;0.20;0.20;;;15.00;99.90;;;;;;5000702;28;20048;-87
2023/10/30 09:27:17;;;;;;;0.22;0.22;;;15.10;99.90;;;;;;5013739;28;20565;-93
2023/10/30 09:29:42;;;;;;;0.20;0.20;;;15.10;99.90;;;;;;5002881;28;20025;-87
2023/10/30 09:32:08;;;;;;;0.50;0.50;;;15.10;99.90;;;;;;5005075;28;20117;-82
2023/10/30 09:34:34;;;;;;;0.20;0.20;;;15.30;99.90;;;;;;5005771;28;20018;-89
2023/10/30 09:37:00;;;;;;;0.20;0.20;;;15.20;99.90;;;;;;5013453;28;20109;-86
2023/10/30 09:39:28;;;;;;;1.55;0.75;;;15.30;99.90;;;;;;5010573;28;20169;-85
2023/10/30 09:41:57;;;;;;;0.47;0.47;;;15.40;99.90;;;;;;4998121;28;20446;-83
2023/10/30 09:44:24;;;;;;;0.30;0.30;;;15.50;99.90;;;;;;4997746;28;20025;-86
2023/10/30 09:46:50;;;;;;;0.20;0.20;;;15.40;99.90;;;;;;5012497;28;20938;-89
2023/10/30 09:49:18;;;;;;;0.10;0.10;;;15.50;99.90;;;;;;5013454;28;20033;-85
2023/10/30 09:51:48;;;;;;;0.20;0.20;;;15.60;99.90;;;;;;4997765;28;20069;-85
2023/10/30 09:54:15;;;;;;;4.18;0.95;;;15.60;99.90;;;;;;5002864;28;20139;-83
2023/10/30 09:56:41;;;;;;;0.20;0.20;;;15.60;99.90;;;;;;5000639;28;20022;-89
2023/10/30 09:59:09;;;;;;;0.25;0.25;;;15.40;99.90;;;;;;4998268;28;20105;-86
2023/10/30 10:01:40;;;;;;;0.20;0.20;;;15.50;99.90;;;;;;5015048;28;20113;-89
2023/10/30 10:04:05;;;;;;;0.20;0.20;;;15.60;99.90;;;;;;5000163;28;20472;-87
2023/10/30 10:06:33;;;;;;;0.20;0.20;;;15.60;99.90;;;;;;5015024;28;20022;-88
2023/10/30 10:09:00;;;;;;;0.30;0.30;;;15.60;99.90;;;;;;5019073;28;20077;-87
2023/10/30 10:11:32;;;;;;;0.30;0.30;;;15.70;99.90;;;;;;5004675;28;20158;-87
2023/10/30 10:13:58;;;;;;;0.20;0.20;;;15.70;99.90;;;;;;5001413;28;20496;-87
2023/10/30 10:16:29;;;;;;;0.20;0.20;;;15.60;99.90;;;;;;5002286;28;20086;-86
2023/10/30 10:18:55;;;;;;;0.20;0.20;;;15.80;99.90;;;;;;5000988;28;20042;-90
2023/10/30 10:21:22;;;;;;;0.20;0.20;;;15.80;99.90;;;;;;5018183;28;20084;-88
2023/10/30 10:23:48;;;;;;;0.20;0.20;;;15.90;99.90;;;;;;5006315;28;20034;-86
2023/10/30 10:26:14;;;;;;;0.38;0.38;;;16.10;99.90;;;;;;5010395;28;20203;-82
2023/10/30 10:28:46;;;;;;;0.22;0.22;;;16.00;99.90;;;;;;5016480;28;20165;-91
2023/10/30 10:31:11;;;;;;;1.10;0.85;;;16.00;99.90;;;;;;5005178;28;20064;-84
2023/10/30 10:33:37;;;;;;;0.50;0.50;;;16.00;99.90;;;;;;5015300;28;20189;-90
2023/10/30 10:36:04;;;;;;;0.38;0.38;;;16.20;99.90;;;;;;4998605;28;20037;-83
2023/10/30 10:38:33;;;;;;;0.20;0.20;;;16.40;99.90;;;;;;5000427;28;20010;-87
2023/10/30 10:41:00;;;;;;;0.30;0.30;;;16.50;99.90;;;;;;5019382;28;20025;-83
2023/10/30 10:43:28;;;;;;;0.30;0.30;;;16.50;99.90;;;;;;5002723;28;20036;-88
2023/10/30 10:45:55;;;;;;;0.30;0.30;;;16.60;99.90;;;;;;5029363;28;20104;-82
2023/10/30 10:48:23;;;;;;;0.22;0.22;;;16.50;99.90;;;;;;5021272;28;20014;-83
2023/10/30 10:50:50;;;;;;;0.30;0.30;;;16.50;99.90;;;;;;5014222;28;20018;-89
2023/10/30 10:53:19;;;;;;;0.30;0.30;;;16.50;99.90;;;;;;5003310;28;20030;-89
2023/10/30 10:55:49;;;;;;;0.20;0.20;;;16.50;99.90;;;;;;5015119;28;20022;-85
2023/10/30 10:58:18;;;;;;;0.35;0.35;;;16.40;99.90;;;;;;5003897;28;20102;-85
2023/10/30 11:00:49;;;;;;;0.20;0.20;;;16.40;99.90;;;;;;5002184;28;20022;-89
2023/10/30 11:03:18;;;;;;;0.20;0.20;;;16.40;99.90;;;;;;5025106;28;20059;-86
2023/10/30 11:05:47;;;;;;;0.32;0.32;;;16.50;99.90;;;;;;5004939;28;20109;-87
2023/10/30 11:08:32;;;;;;;0.30;0.30;;;16.50;99.90;;;;;;5000257;28;20058;-85
2023/10/30 11:11:26;;;;;;;0.20;0.20;;;16.50;99.90;;;;;;5003865;28;20367;-92
2023/10/30 11:13:58;;;;;;;0.52;0.52;;;16.60;99.90;;;;;;5016096;28;20074;-92
2023/10/30 11:16:33;;;;;;;0.22;0.20;;;16.60;99.90;;;;;;5019675;28;20018;-83
2023/10/30 11:19:01;;;;;;;0.20;0.20;;;16.70;99.90;;;;;;4997858;28;20030;-86
2023/10/30 11:21:27;;;;;;;0.30;0.30;;;16.80;99.90;;;;;;5005053;28;20041;-84
2023/10/30 11:23:56;;;;;;;0.20;0.20;;;16.70;99.90;;;;;;5003660;28;20018;-88
2023/10/30 11:26:38;;;;;;;0.30;0.30;;;16.70;99.90;;;;;;5020861;28;20049;-90
2023/10/30 11:29:10;;;;;;;0.30;0.30;;;16.80;99.90;;;;;;5002940;28;20127;-79
2023/10/30 11:31:54;;;;;;;0.43;0.43;;;16.80;99.90;;;;;;4987616;28;20110;-78
2023/10/30 11:34:39;;;;;;;0.25;0.25;;;16.80;99.90;;;;;;4982119;28;20049;-78
2023/10/30 11:37:12;;;;;;;0.73;0.73;;;16.80;99.90;;;;;;4981954;28;20117;-78
2023/10/30 11:39:39;;;;;;;0.30;0.30;;;16.60;99.90;;;;;;4979736;28;20046;-79
2023/10/30 11:42:39;;;;;;;0.20;0.20;;;16.60;99.90;;;;;;4978389;28;20034;-78
2023/10/30 11:45:28;;;;;;;0.40;0.40;;;16.70;99.90;;;;;;4969860;28;20069;-79
2023/10/30 11:48:05;;;;;;;0.30;0.30;;;16.80;99.90;;;;;;4978382;28;20026;-78
2023/10/30 11:50:33;;;;;;;0.20;0.20;;;17.00;99.90;;;;;;4980122;28;20022;-78
2023/10/30 11:53:10;;;;;;;0.20;0.20;;;16.90;99.90;;;;;;4979250;28;20490;-80
2023/10/30 11:55:40;;;;;;;0.20;0.20;;;17.00;99.90;;;;;;4979153;28;20509;-80
2023/10/30 11:58:09;;;;;;;0.20;0.20;;;16.90;99.90;;;;;;4977329;28;20110;-80
2023/10/30 12:00:35;;;;;;;0.45;0.30;;;17.00;99.90;;;;;;4994694;28;20161;-82
2023/10/30 12:03:01;;;;;;;0.20;0.20;;;17.00;99.90;;;;;;4979752;28;20384;-80
2023/10/30 12:05:27;;;;;;;0.20;0.20;;;17.00;99.90;;;;;;4980619;28;20092;-80
2023/10/30 12:07:52;;;;;;;0.30;0.30;;;17.00;99.90;;;;;;4980560;28;20026;-80
2023/10/30 12:10:18;;;;;;;0.50;0.50;;;17.00;99.90;;;;;;4978556;28;20250;-80
2023/10/30 12:12:44;;;;;;;0.28;0.28;;;17.00;99.90;;;;;;4979918;28;20494;-81
2023/10/30 12:15:10;;;;;;;0.20;0.20;;;17.00;99.90;;;;;;4979865;28;20027;-79
2023/10/30 12:17:36;;;;;;;0.20;0.20;;;17.10;99.90;;;;;;4977893;28;20032;-80
2023/10/30 12:20:03;;;;;;;0.20;0.20;;;17.20;99.90;;;;;;4979480;28;20077;-82
2023/10/30 12:22:29;;;;;;;0.20;0.20;;;17.20;99.90;;;;;;4980495;28;20374;-79
2023/10/30 12:24:56;;;;;;;0.28;0.28;;;17.20;99.90;;;;;;4980164;28;20475;-80
2023/10/30 12:27:23;;;;;;;0.20;0.20;;;17.20;99.90;;;;;;4979012;28;20026;-80
2023/10/30 12:29:55;;;;;;;0.30;0.30;;;17.20;99.90;;;;;;4979944;28;20388;-81
2023/10/30 12:32:21;;;;;;;0.30;0.30;;;17.20;99.90;;;;;;4979747;28;20690;-80
2023/10/30 12:34:46;;;;;;;1.17;1.10;;;17.20;99.90;;;;;;4979796;28;20065;-79
2023/10/30 12:37:29;;;;;;;0.30;0.30;;;17.20;99.90;;;;;;4980652;28;20034;-81
2023/10/30 12:40:04;;;;;;;0.28;0.28;;;17.30;99.90;;;;;;4978311;28;20387;-79
2023/10/30 12:42:33;;;;;;;0.30;0.30;;;17.30;99.90;;;;;;4978474;28;20031;-81
2023/10/30 12:45:02;;;;;;;0.32;0.32;;;17.20;99.90;;;;;;4979093;28;20061;-81
2023/10/30 12:47:28;;;;;;;0.40;0.25;;;17.20;99.90;;;;;;4979363;28;20026;-77
2023/10/30 12:49:54;;;;;;;0.20;0.20;;;17.20;99.90;;;;;;4978928;28;21152;-82